createdAt,value
2022-11-08T00:01:59.370Z,100940
2022-11-08T00:06:57.978Z,100940
2022-11-08T00:11:58.551Z,100940
2022-11-08T00:16:58.028Z,100940
2022-11-08T00:21:58.037Z,100940
2022-11-08T00:26:58.060Z,100940
2022-11-08T00:31:58.049Z,100930
2022-11-08T00:36:58.110Z,100940
2022-11-08T00:41:58.201Z,100930
2022-11-08T00:46:58.103Z,100930
2022-11-08T00:51:58.118Z,100920
2022-11-08T00:56:58.133Z,100920
2022-11-08T01:01:59.482Z,100920
2022-11-08T01:06:58.158Z,100910
2022-11-08T01:11:58.159Z,100920
2022-11-08T01:16:58.150Z,100920
2022-11-08T01:21:58.155Z,100910
2022-11-08T01:26:58.196Z,100910
2022-11-08T01:31:58.253Z,100910
2022-11-08T01:36:58.208Z,100890
2022-11-08T01:41:58.201Z,100890
2022-11-08T01:46:58.211Z,100880
2022-11-08T01:52:08.187Z,100870
2022-11-08T01:57:01.637Z,100860
2022-11-08T02:01:58.880Z,100850
2022-11-08T02:06:59.754Z,100850
2022-11-08T02:11:58.627Z,100840
2022-11-08T02:16:58.345Z,100830
2022-11-08T02:22:04.299Z,100820
2022-11-08T02:26:59.490Z,100820
2022-11-08T02:32:00.022Z,100820
2022-11-08T02:36:58.815Z,100810
2022-11-08T02:41:58.429Z,100800
2022-11-08T02:46:58.356Z,100790
2022-11-08T02:51:58.373Z,100800
2022-11-08T02:56:58.501Z,100800
2022-11-08T03:01:59.066Z,100780
2022-11-08T03:06:58.459Z,100770
2022-11-08T03:11:58.408Z,100770
2022-11-08T03:16:58.425Z,100760
2022-11-08T03:21:58.419Z,100750
2022-11-08T03:26:59.207Z,100750
2022-11-08T03:31:58.485Z,100740
2022-11-08T03:36:58.457Z,100730
2022-11-08T03:41:58.763Z,100720
2022-11-08T03:46:59.672Z,100710
2022-11-08T03:51:58.509Z,100690
2022-11-08T03:56:58.559Z,100690
2022-11-08T04:01:59.965Z,100690
2022-11-08T04:06:58.533Z,100680
2022-11-08T04:11:58.542Z,100660
2022-11-08T04:16:58.567Z,100660
2022-11-08T04:21:58.722Z,100650
2022-11-08T04:26:58.671Z,100650
2022-11-08T04:31:58.636Z,100650
2022-11-08T04:36:58.604Z,100640
2022-11-08T04:42:02.090Z,100650
2022-11-08T04:46:58.636Z,100640
2022-11-08T04:51:58.653Z,100630
2022-11-08T04:56:58.656Z,100630
2022-11-08T05:02:00.087Z,100620
2022-11-08T05:06:58.693Z,100610
2022-11-08T05:11:58.703Z,100600
2022-11-08T05:16:58.690Z,100590
2022-11-08T05:21:58.687Z,100590
2022-11-08T05:26:58.704Z,100580
2022-11-08T05:31:58.778Z,100580
2022-11-08T05:36:58.716Z,100580
2022-11-08T05:41:58.756Z,100570
2022-11-08T05:46:58.781Z,100570
2022-11-08T05:51:58.784Z,100560
2022-11-08T05:56:58.755Z,100550
2022-11-08T06:01:59.403Z,100550
2022-11-08T06:06:58.791Z,100560
2022-11-08T06:11:58.840Z,100560
2022-11-08T06:16:58.826Z,100560
2022-11-08T06:21:58.818Z,100560
2022-11-08T06:26:58.880Z,100550
2022-11-08T06:31:58.861Z,100550
2022-11-08T06:36:58.886Z,100540
2022-11-08T06:41:59.367Z,100540
2022-11-08T06:46:58.912Z,100530
2022-11-08T06:51:58.927Z,100530
2022-11-08T06:56:58.976Z,100540
2022-11-08T07:01:59.462Z,100550
2022-11-08T07:06:58.934Z,100550
2022-11-08T07:11:58.969Z,100550
2022-11-08T07:16:58.948Z,100550
2022-11-08T07:21:58.954Z,100550
2022-11-08T07:26:59.010Z,100550
2022-11-08T07:31:59.011Z,100540
2022-11-08T07:36:59.013Z,100540
2022-11-08T07:41:59.016Z,100540
2022-11-08T07:46:59.015Z,100510
2022-11-08T07:51:59.057Z,100510
2022-11-08T07:56:59.052Z,100520
2022-11-08T08:01:59.709Z,100530
2022-11-08T08:06:59.068Z,100520
2022-11-08T08:11:59.493Z,100530
2022-11-08T08:16:59.107Z,100540
2022-11-08T08:21:59.130Z,100530
2022-11-08T08:26:59.139Z,100530
2022-11-08T08:31:59.129Z,100540
2022-11-08T08:36:59.133Z,100540
2022-11-08T08:41:59.141Z,100560
2022-11-08T08:46:59.173Z,100560
2022-11-08T08:51:59.179Z,100540
2022-11-08T08:56:59.162Z,100520
2022-11-08T09:02:00.102Z,100520
2022-11-08T09:06:59.261Z,100520
2022-11-08T09:11:59.317Z,100520
2022-11-08T09:16:59.288Z,100520
2022-11-08T09:21:59.340Z,100520
2022-11-08T09:26:59.575Z,100510
2022-11-08T09:31:59.938Z,100510
2022-11-08T09:36:59.299Z,100510
2022-11-08T09:42:11.491Z,100520
2022-11-08T09:47:07.879Z,100540
2022-11-08T09:52:01.663Z,100540
2022-11-08T09:57:00.958Z,100530
2022-11-08T10:01:59.979Z,100510
2022-11-08T10:07:09.434Z,100520
2022-11-08T10:12:09.375Z,100520
2022-11-08T10:17:05.873Z,100530
2022-11-08T10:22:08.222Z,100540
2022-11-08T10:26:59.710Z,100520
2022-11-08T10:32:11.573Z,100540
2022-11-08T10:37:03.795Z,100530
2022-11-08T10:42:05.015Z,100520
2022-11-08T10:47:03.348Z,100520
2022-11-08T10:52:16.431Z,100510
2022-11-08T10:56:59.490Z,100520
2022-11-08T11:02:01.057Z,100520
2022-11-08T11:07:01.592Z,100520
2022-11-08T11:12:05.507Z,100510
2022-11-08T11:17:02.724Z,100500
2022-11-08T11:22:04.342Z,100480
2022-11-08T11:27:01.188Z,100480
2022-11-08T11:32:19.452Z,100470
2022-11-08T11:37:03.936Z,100490
2022-11-08T11:42:39.400Z,100470
2022-11-08T11:47:05.682Z,100480
2022-11-08T11:51:59.616Z,100470
2022-11-08T11:57:06.588Z,100470
2022-11-08T12:02:07.364Z,100460
2022-11-08T12:07:10.353Z,100470
2022-11-08T12:12:11.491Z,100460
2022-11-08T12:17:09.574Z,100470
2022-11-08T12:22:12.862Z,100460
2022-11-08T12:27:08.923Z,100470
2022-11-08T12:32:09.631Z,100460
2022-11-08T12:37:10.657Z,100460
2022-11-08T12:42:12.892Z,100460
2022-11-08T12:47:18.647Z,100460
2022-11-08T12:52:17.169Z,100460
2022-11-08T12:57:03.171Z,100450
2022-11-08T13:02:02.780Z,100440
2022-11-08T13:07:17.037Z,100450
2022-11-08T13:12:15.201Z,100460
2022-11-08T13:17:12.987Z,100450
2022-11-08T13:21:59.808Z,100450
2022-11-08T13:27:19.702Z,100440
2022-11-08T13:32:05.081Z,100450
2022-11-08T13:37:11.435Z,100440
2022-11-08T13:42:12.656Z,100430
2022-11-08T13:46:59.834Z,100460
2022-11-08T13:52:19.746Z,100440
2022-11-08T13:57:00.868Z,100450
2022-11-08T14:02:03.636Z,100450
2022-11-08T14:07:24.856Z,100440
2022-11-08T14:12:05.669Z,100450
2022-11-08T14:17:19.818Z,100440
2022-11-08T14:22:00.484Z,100440
2022-11-08T14:27:00.155Z,100430
2022-11-08T14:32:06.887Z,100430
2022-11-08T14:37:00.844Z,100430
2022-11-08T14:42:01.631Z,100420
2022-11-08T14:46:59.979Z,100430
2022-11-08T14:52:13.357Z,100430
2022-11-08T14:56:59.987Z,100430
2022-11-08T15:02:00.471Z,100430
2022-11-08T15:07:00.258Z,100440
2022-11-08T15:12:04.242Z,100430
2022-11-08T15:17:03.352Z,100440
2022-11-08T15:22:02.684Z,100430
2022-11-08T15:27:12.927Z,100420
2022-11-08T15:32:01.731Z,100420
2022-11-08T15:37:00.105Z,100420
2022-11-08T15:42:02.458Z,100400
2022-11-08T15:47:00.122Z,100410
2022-11-08T15:52:00.106Z,100400
2022-11-08T15:57:00.135Z,100400
2022-11-08T16:02:03.226Z,100390
2022-11-08T16:07:00.377Z,100400
2022-11-08T16:12:01.769Z,100390
2022-11-08T16:17:00.195Z,100400
2022-11-08T16:22:00.167Z,100400
2022-11-08T16:27:00.423Z,100410
2022-11-08T16:32:00.236Z,100410
2022-11-08T16:37:00.218Z,100410
2022-11-08T16:42:00.316Z,100400
2022-11-08T16:47:00.251Z,100410
2022-11-08T16:52:00.248Z,100410
2022-11-08T16:57:34.061Z,100410
2022-11-08T17:02:00.771Z,100410
2022-11-08T17:07:00.365Z,100400
2022-11-08T17:12:00.369Z,100400
2022-11-08T17:17:00.340Z,100410
2022-11-08T17:22:00.341Z,100410
2022-11-08T17:27:00.334Z,100400
2022-11-08T17:32:00.422Z,100400
2022-11-08T17:37:00.331Z,100390
2022-11-08T17:42:00.528Z,100390
2022-11-08T17:47:00.384Z,100390
2022-11-08T17:52:00.371Z,100390
2022-11-08T17:57:00.410Z,100400
2022-11-08T18:02:01.790Z,100400
2022-11-08T18:07:00.493Z,100400
2022-11-08T18:12:00.642Z,100410
2022-11-08T18:17:00.549Z,100410
2022-11-08T18:22:00.481Z,100410
2022-11-08T18:27:00.448Z,100410
2022-11-08T18:32:00.502Z,100410
2022-11-08T18:37:00.491Z,100410
2022-11-08T18:42:00.522Z,100410
2022-11-08T18:47:00.548Z,100410
2022-11-08T18:52:00.514Z,100410
2022-11-08T18:57:00.524Z,100420
2022-11-08T19:02:01.223Z,100420
2022-11-08T19:07:01.215Z,100420
2022-11-08T19:12:05.491Z,100420
2022-11-08T19:17:00.668Z,100420
2022-11-08T19:22:00.577Z,100420
2022-11-08T19:27:00.627Z,100420
2022-11-08T19:32:00.629Z,100410
2022-11-08T19:37:00.606Z,100400
2022-11-08T19:42:00.658Z,100400
2022-11-08T19:47:00.700Z,100400
2022-11-08T19:52:00.813Z,100410
2022-11-08T19:57:05.572Z,100410
2022-11-08T20:02:01.276Z,100420
2022-11-08T20:07:00.771Z,100410
2022-11-08T20:12:00.689Z,100420
2022-11-08T20:17:00.714Z,100420
2022-11-08T20:22:00.714Z,100420
2022-11-08T20:27:00.773Z,100430
2022-11-08T20:32:00.848Z,100440
2022-11-08T20:37:00.760Z,100430
2022-11-08T20:42:00.761Z,100430
2022-11-08T20:47:06.295Z,100440
2022-11-08T20:52:00.795Z,100450
2022-11-08T20:57:00.815Z,100450
2022-11-08T21:02:02.111Z,100440
2022-11-08T21:08:00.371Z,100440
2022-11-08T21:12:00.871Z,100450
2022-11-08T21:17:21.397Z,100450
2022-11-08T21:22:00.853Z,100460
2022-11-08T21:27:00.862Z,100450
2022-11-08T21:32:01.017Z,100450
2022-11-08T21:37:00.940Z,100450
2022-11-08T21:42:00.915Z,100450
2022-11-08T21:47:00.894Z,100460
2022-11-08T21:52:00.938Z,100460
2022-11-08T21:57:01.018Z,100470
2022-11-08T22:02:02.630Z,100470
2022-11-08T22:07:00.968Z,100460
2022-11-08T22:12:00.978Z,100470
2022-11-08T22:17:00.980Z,100470
2022-11-08T22:22:01.009Z,100470
2022-11-08T22:27:01.101Z,100470
2022-11-08T22:32:01.357Z,100480
2022-11-08T22:37:01.032Z,100480
2022-11-08T22:42:01.086Z,100470
2022-11-08T22:47:01.118Z,100470
2022-11-08T22:52:01.069Z,100470
2022-11-08T22:57:01.076Z,100470
2022-11-08T23:02:01.595Z,100470
2022-11-08T23:07:01.185Z,100460
2022-11-08T23:12:02.473Z,100460
2022-11-08T23:17:01.656Z,100460
2022-11-08T23:22:03.331Z,100460
2022-11-08T23:27:02.092Z,100460
2022-11-08T23:32:01.158Z,100460
2022-11-08T23:37:01.311Z,100460
2022-11-08T23:42:01.157Z,100440
2022-11-08T23:47:01.204Z,100450
2022-11-08T23:52:01.190Z,100450
2022-11-08T23:57:01.206Z,100450
